Time;durP1;ratioP1;P1;durP2;ratioP2;P2;SDS_P1;SDS_P2;PMS_P1;PMS_P2;Temp;Humidity;BMP_temperature;BMP_pressure;BME280_temperature;BME280_humidity;BME280_pressure;Samples;Min_cycle;Max_cycle;Signal;HPM_P1;HPM_P2
2021/12/24 00:14:34;;;;;;;105.05;40.55;;;;;;;;;;5159242;27;20032;-84
2021/12/24 00:17:04;;;;;;;114.00;41.80;;;;;;;;;;5138573;27;20063;-84
2021/12/24 00:19:41;;;;;;;122.40;42.40;;;;;;;;;;5119902;27;20063;-84
2021/12/24 00:22:31;;;;;;;96.30;37.10;;;;;;;;;;5119632;27;20045;-84
2021/12/24 00:35:54;;;;;;;105.45;39.40;;;;;;;;;;5117591;27;20072;-84
2021/12/24 00:38:20;;;;;;;109.13;40.28;;;;;;;;;;5117707;27;20035;-83
2021/12/24 00:40:48;;;;;;;97.97;36.90;;;;;;;;;;5117375;27;20051;-83
2021/12/24 00:43:14;;;;;;;109.72;39.63;;;;;;;;;;5143440;27;20094;-83
2021/12/24 00:45:42;;;;;;;95.40;37.00;;;;;;;;;;5126920;27;20065;-84
2021/12/24 00:48:09;;;;;;;99.60;38.22;;;;;;;;;;5119925;27;20421;-84
2021/12/24 00:50:49;;;;;;;102.18;38.88;;;;;;;;;;5118768;27;20498;-84
2021/12/24 00:56:14;;;;;;;78.30;32.28;;;;;;;;;;5084526;27;20082;-84
2021/12/24 00:58:41;;;;;;;87.60;35.00;;;;;;;;;;5101940;27;20031;-84
2021/12/24 01:01:08;;;;;;;77.70;32.88;;;;;;;;;;5101717;27;20371;-84
2021/12/24 01:03:34;;;;;;;75.97;32.67;;;;;;;;;;5101598;27;20126;-84
2021/12/24 01:06:00;;;;;;;79.28;33.35;;;;;;;;;;5101146;27;20042;-84
2021/12/24 01:08:26;;;;;;;90.55;34.90;;;;;;;;;;5117992;27;20039;-84
2021/12/24 01:11:03;;;;;;;84.85;32.92;;;;;;;;;;5100711;27;20126;-83
2021/12/24 01:13:29;;;;;;;81.47;32.80;;;;;;;;;;5117617;27;20484;-84
2021/12/24 01:16:03;;;;;;;86.43;34.63;;;;;;;;;;5118618;27;20043;-84
2021/12/24 01:18:41;;;;;;;81.88;33.65;;;;;;;;;;5118560;27;20524;-85
2021/12/24 01:21:21;;;;;;;73.97;32.28;;;;;;;;;;5118950;27;20073;-85
2021/12/24 01:23:54;;;;;;;71.28;31.48;;;;;;;;;;5117984;27;20047;-84
2021/12/24 01:26:23;;;;;;;69.63;30.35;;;;;;;;;;5118173;27;20043;-84
2021/12/24 01:39:52;;;;;;;61.00;27.02;;;;;;;;;;5142697;27;20029;-84
2021/12/24 01:45:18;;;;;;;59.53;27.38;;;;;;;;;;5116528;27;20591;-85
2021/12/24 01:47:44;;;;;;;61.92;28.40;;;;;;;;;;5116902;27;20078;-85
2021/12/24 01:50:11;;;;;;;57.22;25.67;;;;;;;;;;5116550;27;20035;-85
2021/12/24 01:52:38;;;;;;;57.03;26.73;;;;;;;;;;5116565;27;20070;-85
2021/12/24 01:55:04;;;;;;;50.67;26.10;;;;;;;;;;5116105;27;20039;-85
2021/12/24 01:57:32;;;;;;;51.60;25.70;;;;;;;;;;5116666;27;20035;-85
2021/12/24 01:59:58;;;;;;;52.15;25.20;;;;;;;;;;5116520;27;20062;-86
2021/12/24 02:02:24;;;;;;;52.58;25.05;;;;;;;;;;5116175;27;20035;-85
2021/12/24 02:04:50;;;;;;;48.13;23.88;;;;;;;;;;5098711;27;20607;-85
2021/12/24 02:07:16;;;;;;;44.55;23.60;;;;;;;;;;5098922;27;20054;-85
2021/12/24 02:09:42;;;;;;;45.33;22.88;;;;;;;;;;5116136;27;20156;-86
2021/12/24 02:12:09;;;;;;;43.83;21.98;;;;;;;;;;5116287;27;20118;-83
2021/12/24 02:14:38;;;;;;;43.30;22.38;;;;;;;;;;5098444;27;20070;-84
2021/12/24 02:30:43;;;;;;;35.33;20.80;;;;;;;;;;5115662;27;20051;-84
2021/12/24 02:33:09;;;;;;;38.00;20.63;;;;;;;;;;5098324;27;20035;-84
2021/12/24 02:35:35;;;;;;;37.47;20.88;;;;;;;;;;5098033;27;20035;-84
2021/12/24 02:38:02;;;;;;;41.50;21.80;;;;;;;;;;5115169;27;20046;-84
2021/12/24 02:40:28;;;;;;;42.33;22.13;;;;;;;;;;5098606;27;20134;-84
2021/12/24 02:42:56;;;;;;;41.95;22.15;;;;;;;;;;5114741;27;20043;-84
2021/12/24 02:45:23;;;;;;;37.05;20.83;;;;;;;;;;5115462;27;20050;-84
2021/12/24 02:56:23;;;;;;;32.17;18.95;;;;;;;;;;5081445;27;20220;-84
2021/12/24 02:58:49;;;;;;;32.63;18.30;;;;;;;;;;5115194;27;20046;-84
2021/12/24 03:01:17;;;;;;;36.38;18.58;;;;;;;;;;5115258;27;20039;-84
2021/12/24 03:03:48;;;;;;;32.42;18.52;;;;;;;;;;5097250;27;20035;-84
2021/12/24 03:06:15;;;;;;;32.10;18.15;;;;;;;;;;5097770;27;20035;-84
2021/12/24 03:08:41;;;;;;;37.33;19.05;;;;;;;;;;5114841;27;20042;-84
2021/12/24 03:11:07;;;;;;;34.80;18.13;;;;;;;;;;5114866;27;20035;-84
2021/12/24 03:13:36;;;;;;;31.63;17.77;;;;;;;;;;5114643;27;20046;-84
2021/12/24 03:16:03;;;;;;;33.10;18.20;;;;;;;;;;5114405;27;20065;-84
2021/12/24 03:18:31;;;;;;;38.55;19.45;;;;;;;;;;5114532;27;20092;-84
2021/12/24 03:21:06;;;;;;;38.50;18.23;;;;;;;;;;5097519;28;20092;-84
2021/12/24 03:23:39;;;;;;;38.58;19.83;;;;;;;;;;5097186;28;20041;-84
2021/12/24 03:26:06;;;;;;;35.97;17.77;;;;;;;;;;5123487;28;20093;-84
2021/12/24 03:28:32;;;;;;;33.25;17.33;;;;;;;;;;5139907;27;20090;-84
2021/12/24 03:30:59;;;;;;;33.75;17.20;;;;;;;;;;5131223;28;20494;-84
2021/12/24 03:33:25;;;;;;;32.28;16.88;;;;;;;;;;5115248;28;20035;-85
2021/12/24 03:35:51;;;;;;;32.75;16.90;;;;;;;;;;5117891;27;20052;-85
2021/12/24 03:38:17;;;;;;;32.88;16.30;;;;;;;;;;5119572;27;20043;-85
2021/12/24 03:40:43;;;;;;;29.60;16.63;;;;;;;;;;5118965;27;20494;-85
2021/12/24 03:43:09;;;;;;;28.40;14.48;;;;;;;;;;5118615;27;20043;-85
2021/12/24 03:45:56;;;;;;;27.52;14.23;;;;;;;;;;5101493;27;20440;-85
2021/12/24 03:48:28;;;;;;;26.10;13.75;;;;;;;;;;5118184;27;20047;-85
2021/12/24 03:56:26;;;;;;;21.10;12.73;;;;;;;;;;5129518;27;20039;-84
2021/12/24 03:58:52;;;;;;;21.63;13.05;;;;;;;;;;5128857;27;20379;-84
2021/12/24 04:01:18;;;;;;;19.63;11.98;;;;;;;;;;5119304;27;20039;-84
2021/12/24 04:03:44;;;;;;;26.25;14.13;;;;;;;;;;5118658;27;20053;-84
2021/12/24 04:06:10;;;;;;;28.95;15.93;;;;;;;;;;5101577;27;20126;-85
2021/12/24 04:08:36;;;;;;;29.15;14.55;;;;;;;;;;5118362;27;20054;-85
2021/12/24 04:11:04;;;;;;;30.02;15.65;;;;;;;;;;5101767;27;20088;-85
2021/12/24 04:13:31;;;;;;;27.30;15.65;;;;;;;;;;5117852;27;20114;-85
2021/12/24 04:15:57;;;;;;;35.15;18.70;;;;;;;;;;5101352;27;20554;-85
2021/12/24 04:26:28;;;;;;;54.05;25.10;;;;;;;;;;5117513;27;20406;-85
2021/12/24 04:28:54;;;;;;;48.42;23.63;;;;;;;;;;5118051;27;20042;-85
2021/12/24 04:31:26;;;;;;;47.65;23.25;;;;;;;;;;5118008;27;20039;-85
2021/12/24 04:33:57;;;;;;;50.30;25.13;;;;;;;;;;5100577;27;20035;-84
2021/12/24 04:51:02;;;;;;;43.80;21.73;;;;;;;;;;5118214;27;20046;-85
2021/12/24 04:53:08;;;;;;;46.40;23.13;;;;;;;;;;5117936;27;20039;-85
2021/12/24 05:04:01;;;;;;;48.88;23.48;;;;;;;;;;5103934;27;20131;-84
2021/12/24 05:06:33;;;;;;;45.13;23.08;;;;;;;;;;5117593;27;20042;-85
2021/12/24 05:09:07;;;;;;;51.55;26.05;;;;;;;;;;5118713;27;20614;-84
2021/12/24 05:11:33;;;;;;;52.75;25.25;;;;;;;;;;5119680;27;20126;-85
2021/12/24 05:13:59;;;;;;;49.13;24.60;;;;;;;;;;5140746;27;20035;-83
2021/12/24 05:16:37;;;;;;;52.70;24.75;;;;;;;;;;5143243;27;20034;-83
2021/12/24 05:21:42;;;;;;;47.72;23.73;;;;;;;;;;5116350;27;20092;-84
2021/12/24 05:24:16;;;;;;;53.20;24.80;;;;;;;;;;5116709;27;20410;-84
2021/12/24 05:26:53;;;;;;;53.30;24.15;;;;;;;;;;5116715;27;20047;-85
2021/12/24 05:29:19;;;;;;;51.45;25.45;;;;;;;;;;5116724;27;20046;-85
2021/12/24 05:31:45;;;;;;;49.95;24.50;;;;;;;;;;5099515;27;20073;-84
2021/12/24 05:34:14;;;;;;;50.90;23.50;;;;;;;;;;5099198;27;20118;-84
2021/12/24 05:36:40;;;;;;;39.45;20.67;;;;;;;;;;5116013;27;20045;-85
2021/12/24 05:39:06;;;;;;;49.58;24.40;;;;;;;;;;5099536;27;20417;-84
2021/12/24 05:41:32;;;;;;;50.08;22.63;;;;;;;;;;5116276;27;20049;-83
2021/12/24 05:43:59;;;;;;;46.08;23.67;;;;;;;;;;5099470;27;20486;-83
2021/12/24 05:46:25;;;;;;;46.38;23.50;;;;;;;;;;5116727;27;20047;-83
2021/12/24 05:48:51;;;;;;;49.10;23.73;;;;;;;;;;5100309;27;20068;-82
2021/12/24 05:51:17;;;;;;;53.58;24.00;;;;;;;;;;5099708;27;20035;-83
2021/12/24 05:53:43;;;;;;;53.22;24.30;;;;;;;;;;5116247;27;20031;-83
2021/12/24 05:56:09;;;;;;;47.92;22.58;;;;;;;;;;5100607;27;20109;-83
2021/12/24 05:58:35;;;;;;;45.45;21.63;;;;;;;;;;5116812;27;20047;-83
2021/12/24 06:01:01;;;;;;;43.67;23.85;;;;;;;;;;5092322;27;20071;-83
2021/12/24 06:03:27;;;;;;;45.33;21.88;;;;;;;;;;5104890;27;20047;-83
2021/12/24 06:05:53;;;;;;;45.15;22.30;;;;;;;;;;5082359;27;20039;-86
2021/12/24 06:08:19;;;;;;;46.63;22.60;;;;;;;;;;5116296;27;20046;-84
2021/12/24 06:10:45;;;;;;;41.15;21.95;;;;;;;;;;5095699;28;20043;-84
2021/12/24 06:13:11;;;;;;;41.92;22.23;;;;;;;;;;5104724;27;20387;-86
2021/12/24 06:15:49;;;;;;;43.38;21.00;;;;;;;;;;5096652;28;20042;-84
2021/12/24 06:20:47;;;;;;;41.08;22.02;;;;;;;;;;5115909;27;20043;-84
2021/12/24 06:23:13;;;;;;;42.58;21.27;;;;;;;;;;5115523;27;20083;-83
2021/12/24 06:25:39;;;;;;;37.53;19.52;;;;;;;;;;5116442;27;20406;-84
2021/12/24 06:28:05;;;;;;;40.15;21.55;;;;;;;;;;5098630;27;20035;-84
2021/12/24 06:30:31;;;;;;;40.30;21.33;;;;;;;;;;5110713;28;20043;-84
2021/12/24 06:32:57;;;;;;;38.72;19.75;;;;;;;;;;5107809;27;20035;-84
2021/12/24 06:35:24;;;;;;;37.83;19.48;;;;;;;;;;5116200;27;20043;-84
2021/12/24 06:37:51;;;;;;;37.30;19.23;;;;;;;;;;5098728;27;20666;-84
2021/12/24 06:40:17;;;;;;;41.80;19.33;;;;;;;;;;5115470;27;20047;-84
2021/12/24 06:42:43;;;;;;;39.70;19.40;;;;;;;;;;5094900;28;20060;-84
2021/12/24 06:45:09;;;;;;;41.38;18.95;;;;;;;;;;5105672;27;20050;-85
2021/12/24 06:47:35;;;;;;;36.60;18.63;;;;;;;;;;5113741;27;20043;-85
2021/12/24 06:50:01;;;;;;;36.30;18.05;;;;;;;;;;5115463;27;20431;-84
2021/12/24 06:52:27;;;;;;;36.95;17.75;;;;;;;;;;5115308;27;20042;-84
2021/12/24 06:54:54;;;;;;;34.13;15.25;;;;;;;;;;5098208;27;20450;-83
2021/12/24 06:57:22;;;;;;;34.25;17.25;;;;;;;;;;5115413;27;20047;-84
2021/12/24 06:59:48;;;;;;;39.47;19.52;;;;;;;;;;5115048;27;20045;-84
2021/12/24 07:02:14;;;;;;;32.15;16.67;;;;;;;;;;5114922;27;20121;-84
2021/12/24 07:04:40;;;;;;;33.45;17.10;;;;;;;;;;5114778;27;20039;-83
2021/12/24 07:07:06;;;;;;;29.63;16.80;;;;;;;;;;5114872;27;20039;-83
2021/12/24 07:09:32;;;;;;;31.13;16.25;;;;;;;;;;5128239;27;20033;-83
2021/12/24 07:11:58;;;;;;;29.63;14.23;;;;;;;;;;5123346;27;20023;-83
2021/12/24 07:14:24;;;;;;;25.88;15.05;;;;;;;;;;5126880;28;20114;-83
2021/12/24 07:16:51;;;;;;;28.88;15.65;;;;;;;;;;5115778;27;20043;-84
2021/12/24 07:19:17;;;;;;;24.75;13.80;;;;;;;;;;5098447;28;20471;-83
2021/12/24 07:21:43;;;;;;;29.17;15.80;;;;;;;;;;5114567;27;20035;-84
2021/12/24 07:24:10;;;;;;;27.75;15.27;;;;;;;;;;5114651;28;20134;-84
2021/12/24 07:26:36;;;;;;;29.45;14.02;;;;;;;;;;5097941;28;20096;-84
2021/12/24 07:29:02;;;;;;;25.80;14.55;;;;;;;;;;5115048;28;20078;-84
2021/12/24 07:31:28;;;;;;;26.13;14.13;;;;;;;;;;5114657;28;20066;-84
2021/12/24 07:33:54;;;;;;;26.15;12.60;;;;;;;;;;5114775;28;20042;-84
2021/12/24 07:36:20;;;;;;;34.17;13.98;;;;;;;;;;5098875;28;20104;-83
2021/12/24 07:38:46;;;;;;;30.42;13.30;;;;;;;;;;5140403;28;20031;-85
2021/12/24 07:41:14;;;;;;;20.52;10.90;;;;;;;;;;5140132;28;20023;-84
2021/12/24 07:43:43;;;;;;;26.90;12.43;;;;;;;;;;5135985;28;20041;-83
2021/12/24 07:46:09;;;;;;;27.52;12.73;;;;;;;;;;5140630;27;20027;-83
2021/12/24 07:48:43;;;;;;;29.77;12.07;;;;;;;;;;5139018;28;20043;-84
2021/12/24 07:53:38;;;;;;;22.70;12.02;;;;;;;;;;5114504;28;20427;-86
2021/12/24 07:56:04;;;;;;;23.80;12.30;;;;;;;;;;5084917;28;20093;-85
2021/12/24 07:58:30;;;;;;;24.00;11.85;;;;;;;;;;5094295;28;20036;-84
2021/12/24 08:00:56;;;;;;;30.35;11.68;;;;;;;;;;5093945;28;20038;-85
2021/12/24 08:03:25;;;;;;;25.25;12.00;;;;;;;;;;5094153;28;20123;-85
2021/12/24 08:05:51;;;;;;;27.92;11.65;;;;;;;;;;5094095;28;20134;-84
2021/12/24 08:08:20;;;;;;;21.08;11.00;;;;;;;;;;5094027;28;20621;-83
2021/12/24 08:10:46;;;;;;;26.05;11.65;;;;;;;;;;5081563;28;20036;-84
2021/12/24 08:13:13;;;;;;;31.10;11.45;;;;;;;;;;5097162;28;20086;-83
2021/12/24 08:15:39;;;;;;;26.33;11.00;;;;;;;;;;5081698;28;20039;-84
2021/12/24 08:18:05;;;;;;;31.92;14.05;;;;;;;;;;5098692;28;20031;-84
2021/12/24 08:20:31;;;;;;;23.08;9.55;;;;;;;;;;5077864;28;20157;-84
2021/12/24 08:22:58;;;;;;;25.52;11.45;;;;;;;;;;5098344;28;20035;-84
2021/12/24 08:25:24;;;;;;;25.30;10.93;;;;;;;;;;5102630;27;20039;-84
2021/12/24 08:27:53;;;;;;;28.48;11.13;;;;;;;;;;5081570;28;20047;-84
2021/12/24 08:30:21;;;;;;;27.92;11.27;;;;;;;;;;5085685;27;20042;-84
2021/12/24 08:32:47;;;;;;;26.98;11.52;;;;;;;;;;5105843;27;20514;-84
2021/12/24 08:35:15;;;;;;;25.20;11.10;;;;;;;;;;5092130;28;20061;-85
2021/12/24 08:37:41;;;;;;;27.48;11.23;;;;;;;;;;5091237;27;20097;-84
2021/12/24 08:40:07;;;;;;;32.60;13.57;;;;;;;;;;5101180;27;20502;-86
2021/12/24 08:42:33;;;;;;;30.83;11.73;;;;;;;;;;5090722;28;20555;-85
2021/12/24 08:44:59;;;;;;;27.70;12.63;;;;;;;;;;5091901;27;20121;-85
2021/12/24 08:47:26;;;;;;;30.92;13.55;;;;;;;;;;5099021;27;20039;-86
2021/12/24 08:49:52;;;;;;;30.60;11.80;;;;;;;;;;5116295;27;20046;-85
2021/12/24 08:52:17;;;;;;;25.52;11.20;;;;;;;;;;5099416;27;20035;-85
2021/12/24 08:54:44;;;;;;;21.60;9.75;;;;;;;;;;5098865;27;20473;-86
2021/12/24 08:57:13;;;;;;;23.23;10.68;;;;;;;;;;5116273;27;20050;-86
2021/12/24 08:59:39;;;;;;;17.65;8.77;;;;;;;;;;5116332;27;20035;-85
2021/12/24 09:02:05;;;;;;;17.42;7.30;;;;;;;;;;5100559;27;20035;-85
2021/12/24 09:04:32;;;;;;;21.13;8.60;;;;;;;;;;5100136;27;20427;-85
2021/12/24 09:06:58;;;;;;;21.45;9.98;;;;;;;;;;5117362;27;20043;-85
2021/12/24 09:09:24;;;;;;;25.02;10.77;;;;;;;;;;5117022;27;20047;-85
2021/12/24 09:11:50;;;;;;;26.83;11.45;;;;;;;;;;5100135;27;20039;-85
2021/12/24 09:14:18;;;;;;;24.75;11.18;;;;;;;;;;5116908;27;20148;-85
2021/12/24 09:16:45;;;;;;;32.47;12.60;;;;;;;;;;5099526;27;20137;-85
2021/12/24 09:19:19;;;;;;;24.98;11.93;;;;;;;;;;5099829;27;20039;-85
2021/12/24 09:21:45;;;;;;;29.05;11.30;;;;;;;;;;5116337;27;20043;-85
2021/12/24 09:24:11;;;;;;;27.23;13.27;;;;;;;;;;5099702;27;20031;-85
2021/12/24 09:26:43;;;;;;;27.08;14.40;;;;;;;;;;5116208;27;20447;-85
2021/12/24 09:29:11;;;;;;;30.63;13.93;;;;;;;;;;5116714;27;20270;-86
2021/12/24 09:31:37;;;;;;;31.88;12.25;;;;;;;;;;5116461;27;20079;-86
2021/12/24 09:34:04;;;;;;;34.17;11.77;;;;;;;;;;5115770;27;20043;-86
2021/12/24 09:36:32;;;;;;;32.60;11.63;;;;;;;;;;5099256;27;20047;-85
2021/12/24 09:39:00;;;;;;;27.95;11.15;;;;;;;;;;5099436;27;20398;-86
2021/12/24 09:41:26;;;;;;;28.90;10.73;;;;;;;;;;5116603;27;20473;-86
2021/12/24 09:44:00;;;;;;;27.70;10.15;;;;;;;;;;5116179;27;20035;-86
2021/12/24 09:46:26;;;;;;;;;;;;;;;;;;5116652;27;20035;-86
2021/12/24 09:48:53;;;;;;;28.08;9.75;;;;;;;;;;5098622;27;19922;-86
2021/12/24 09:51:21;;;;;;;19.52;9.13;;;;;;;;;;5099591;27;20142;-86
2021/12/24 09:53:47;;;;;;;26.20;9.38;;;;;;;;;;5099555;27;20039;-86
2021/12/24 09:56:16;;;;;;;25.15;9.18;;;;;;;;;;5126120;27;20114;-83
2021/12/24 09:58:44;;;;;;;24.25;9.10;;;;;;;;;;5125479;27;20027;-84
2021/12/24 10:01:27;;;;;;;20.85;8.75;;;;;;;;;;5142059;27;20027;-84
2021/12/24 10:04:10;;;;;;;;;;;;;;;;;;;;;
2021/12/24 10:06:37;;;;;;;21.23;8.27;;;;;;;;;;5115774;27;20046;-85
2021/12/24 10:09:19;;;;;;;21.70;7.95;;;;;;;;;;5116061;27;20379;-85
2021/12/24 10:11:49;;;;;;;27.15;8.82;;;;;;;;;;5098873;27;20035;-84
2021/12/24 10:14:18;;;;;;;20.38;8.82;;;;;;;;;;5098687;27;20083;-85
2021/12/24 10:16:50;;;;;;;18.77;7.50;;;;;;;;;;5098962;27;20042;-85
2021/12/24 10:19:19;;;;;;;20.75;8.68;;;;;;;;;;5116091;27;20605;-84
2021/12/24 10:21:46;;;;;;;17.35;8.10;;;;;;;;;;5098566;27;20485;-84
2021/12/24 10:24:13;;;;;;;20.55;8.48;;;;;;;;;;5098150;27;20035;-85
2021/12/24 10:26:44;;;;;;;21.58;9.30;;;;;;;;;;5115692;27;20074;-85
2021/12/24 10:29:30;;;;;;;19.52;8.65;;;;;;;;;;5099425;27;20035;-85
2021/12/24 10:32:20;;;;;;;22.63;9.07;;;;;;;;;;5098777;27;20078;-89
2021/12/24 10:34:46;;;;;;;20.42;7.75;;;;;;;;;;5098138;27;20038;-78
2021/12/24 10:37:27;;;;;;;22.80;8.35;;;;;;;;;;5115084;27;20036;-85
2021/12/24 10:39:57;;;;;;;27.80;9.55;;;;;;;;;;5098138;27;20039;-85
2021/12/24 10:42:26;;;;;;;29.92;8.18;;;;;;;;;;5098468;27;20043;-85
2021/12/24 10:44:53;;;;;;;17.30;8.18;;;;;;;;;;5097307;27;20043;-85
2021/12/24 10:47:23;;;;;;;24.10;8.18;;;;;;;;;;5098010;27;20043;-86
2021/12/24 10:54:54;;;;;;;25.52;8.70;;;;;;;;;;5139578;27;20027;-85
2021/12/24 10:57:25;;;;;;;24.25;8.70;;;;;;;;;;5115042;27;20043;-85
2021/12/24 10:59:54;;;;;;;21.13;8.82;;;;;;;;;;5117658;27;20031;-85
2021/12/24 11:02:23;;;;;;;21.50;8.85;;;;;;;;;;5100801;27;20474;-85
2021/12/24 11:04:53;;;;;;;23.02;8.85;;;;;;;;;;5116709;27;20043;-85
2021/12/24 11:07:36;;;;;;;20.92;8.82;;;;;;;;;;5097813;27;20053;-85
2021/12/24 11:10:13;;;;;;;18.50;8.47;;;;;;;;;;5115189;27;20126;-85
2021/12/24 11:12:47;;;;;;;18.92;8.50;;;;;;;;;;5115040;27;20398;-85
2021/12/24 11:15:13;;;;;;;;;;;;;;;;;;5080810;28;20039;-85
2021/12/24 11:17:40;;;;;;;20.77;8.68;;;;;;;;;;5087590;27;19926;-85
2021/12/24 11:20:10;;;;;;;16.60;8.27;;;;;;;;;;5107209;27;20023;-85
2021/12/24 11:22:49;;;;;;;21.20;10.07;;;;;;;;;;5141209;27;20035;-85
2021/12/24 11:25:15;;;;;;;23.33;10.15;;;;;;;;;;5112706;28;20557;-85
2021/12/24 11:27:41;;;;;;;24.65;9.10;;;;;;;;;;5116934;28;20039;-85
2021/12/24 11:30:08;;;;;;;21.90;9.38;;;;;;;;;;5107546;28;20088;-84
2021/12/24 11:32:35;;;;;;;20.10;8.80;;;;;;;;;;5103921;28;20039;-85
2021/12/24 11:35:01;;;;;;;20.27;8.23;;;;;;;;;;5101293;28;20144;-83
2021/12/24 11:37:27;;;;;;;20.98;8.73;;;;;;;;;;5101703;28;20047;-85
2021/12/24 11:39:53;;;;;;;17.88;8.45;;;;;;;;;;5101098;28;20027;-85
2021/12/24 11:42:21;;;;;;;21.95;8.80;;;;;;;;;;5102903;28;20501;-85
2021/12/24 11:44:49;;;;;;;23.10;8.63;;;;;;;;;;5123866;27;20051;-85
2021/12/24 11:47:15;;;;;;;17.60;9.02;;;;;;;;;;5140339;28;20039;-84
2021/12/24 11:50:19;;;;;;;22.00;8.65;;;;;;;;;;5115916;28;20664;-85
2021/12/24 11:53:44;;;;;;;20.90;6.80;;;;;;;;;;4995579;28;20052;-86
2021/12/24 11:56:56;;;;;;;13.55;4.90;;;;;;;;;;4962016;28;20243;-86
2021/12/24 12:00:12;;;;;;;10.68;3.80;;;;;;;;;;5003761;28;20512;-85
2021/12/24 12:03:10;;;;;;;7.53;3.92;;;;;;;;;;4983159;28;20042;-85
2021/12/24 12:05:41;;;;;;;1.92;1.52;;;;;;;;;;4981980;28;20041;-86
2021/12/24 12:08:25;;;;;;;1.42;1.33;;;;;;;;;;5036525;28;20630;-86
2021/12/24 12:11:05;;;;;;;1.77;1.50;;;;;;;;;;5106983;27;20296;-85
2021/12/24 12:13:53;;;;;;;2.03;1.83;;;;;;;;;;5084339;28;20047;-85
2021/12/24 12:17:22;;;;;;;1.90;1.80;;;;;;;;;;5072861;28;20073;-85
2021/12/24 12:20:15;;;;;;;2.13;1.92;;;;;;;;;;5037312;28;20110;-85
2021/12/24 12:22:55;;;;;;;1.85;1.75;;;;;;;;;;5084683;28;20035;-86
2021/12/24 12:25:55;;;;;;;2.20;2.00;;;;;;;;;;5112704;27;20497;-85
2021/12/24 12:28:40;;;;;;;2.47;2.28;;;;;;;;;;5084907;27;20112;-85
2021/12/24 12:34:29;;;;;;;2.90;2.63;;;;;;;;;;5105224;27;20126;-86
2021/12/24 12:37:39;;;;;;;2.60;2.40;;;;;;;;;;5085017;28;20490;-86
2021/12/24 12:43:24;;;;;;;3.17;2.92;;;;;;;;;;5104064;28;20066;-86
2021/12/24 12:45:55;;;;;;;3.80;3.42;;;;;;;;;;5094895;28;20043;-86
2021/12/24 12:52:24;;;;;;;4.47;4.07;;;;;;;;;;5093622;27;20504;-86
2021/12/24 12:58:51;;;;;;;4.10;3.70;;;;;;;;;;5116258;28;20046;-85
2021/12/24 13:08:36;;;;;;;5.35;4.85;;;;;;;;;;5032531;28;20107;-85
2021/12/24 13:11:17;;;;;;;4.68;4.20;;;;;;;;;;5064503;28;20051;-85
2021/12/24 13:13:51;;;;;;;4.70;4.30;;;;;;;;;;5097662;28;20122;-84
2021/12/24 13:16:34;;;;;;;4.88;4.38;;;;;;;;;;5115087;28;20043;-84
2021/12/24 13:24:53;;;;;;;5.18;4.68;;;;;;;;;;5100316;28;20467;-84
2021/12/24 13:27:25;;;;;;;6.13;5.53;;;;;;;;;;5098187;28;20046;-84
2021/12/24 13:30:17;;;;;;;6.40;5.80;;;;;;;;;;5097003;28;20078;-85
2021/12/24 13:32:48;;;;;;;4.95;4.45;;;;;;;;;;5083546;27;20054;-84
2021/12/24 13:38:57;;;;;;;4.70;4.30;;;;;;;;;;5130929;27;20505;-85
2021/12/24 13:41:26;;;;;;;5.93;5.32;;;;;;;;;;5110036;27;20035;-85
2021/12/24 13:43:58;;;;;;;4.10;3.80;;;;;;;;;;5099911;27;20491;-84
2021/12/24 13:46:34;;;;;;;4.47;4.03;;;;;;;;;;5101093;27;20039;-84
2021/12/24 13:54:37;;;;;;;4.47;3.50;;;;;;;;;;5098918;28;20085;-85
2021/12/24 13:57:09;;;;;;;3.33;3.00;;;;;;;;;;5094065;28;20415;-85
2021/12/24 13:59:43;;;;;;;3.50;3.20;;;;;;;;;;5115293;28;20036;-80
2021/12/24 14:08:39;;;;;;;3.90;3.60;;;;;;;;;;5114489;28;20125;-87
2021/12/24 14:15:05;;;;;;;4.00;3.63;;;;;;;;;;5118242;27;20046;-85
2021/12/24 14:18:16;;;;;;;4.03;3.63;;;;;;;;;;5079687;28;20039;-84
2021/12/24 14:21:00;;;;;;;4.03;3.70;;;;;;;;;;5095303;28;20124;-85
2021/12/24 14:23:42;;;;;;;4.13;3.72;;;;;;;;;;5122361;27;20047;-86
2021/12/24 14:26:44;;;;;;;5.13;4.22;;;;;;;;;;5135423;27;20076;-86
2021/12/24 14:29:32;;;;;;;6.53;4.73;;;;;;;;;;5115359;27;20090;-80
2021/12/24 14:32:01;;;;;;;5.28;4.00;;;;;;;;;;5127290;27;20292;-83
2021/12/24 14:34:31;;;;;;;4.50;4.10;;;;;;;;;;5113197;28;20031;-83
2021/12/24 14:37:33;;;;;;;6.05;4.32;;;;;;;;;;5099817;27;20402;-81
2021/12/24 14:40:08;;;;;;;5.10;4.60;;;;;;;;;;5027103;28;20116;-85
2021/12/24 14:42:54;;;;;;;5.80;5.20;;;;;;;;;;5056633;27;20066;-85
2021/12/24 14:45:25;;;;;;;7.18;5.63;;;;;;;;;;5086136;28;20088;-85
2021/12/24 14:47:57;;;;;;;6.43;5.75;;;;;;;;;;5089418;27;20039;-86
2021/12/24 14:50:23;;;;;;;5.72;5.10;;;;;;;;;;5134203;27;20046;-86
2021/12/24 14:53:05;;;;;;;5.28;4.78;;;;;;;;;;5115797;27;20039;-85
2021/12/24 14:55:38;;;;;;;5.15;4.65;;;;;;;;;;5095176;27;20044;-85
2021/12/24 14:58:05;;;;;;;3.97;3.67;;;;;;;;;;5119808;27;20319;-85
2021/12/24 15:00:46;;;;;;;4.47;4.07;;;;;;;;;;5125020;28;20064;-89
2021/12/24 15:03:14;;;;;;;3.92;3.53;;;;;;;;;;5111076;27;20040;-88
2021/12/24 15:05:44;;;;;;;4.25;3.88;;;;;;;;;;5082710;28;20043;-90
2021/12/24 15:08:16;;;;;;;3.95;3.65;;;;;;;;;;5079089;28;20099;-90
2021/12/24 15:11:01;;;;;;;3.63;3.33;;;;;;;;;;5080915;27;20043;-84
2021/12/24 15:13:28;;;;;;;4.63;3.97;;;;;;;;;;5095889;28;20127;-84
2021/12/24 15:16:03;;;;;;;4.95;4.25;;;;;;;;;;5115924;28;20065;-85
2021/12/24 15:18:30;;;;;;;4.57;4.18;;;;;;;;;;5087616;27;20035;-83
2021/12/24 15:20:57;;;;;;;4.90;4.05;;;;;;;;;;5090937;28;20035;-83
2021/12/24 15:23:23;;;;;;;4.63;3.88;;;;;;;;;;5126528;27;20050;-85
2021/12/24 15:25:49;;;;;;;4.65;3.70;;;;;;;;;;5091928;28;20043;-87
2021/12/24 15:28:19;;;;;;;3.83;3.53;;;;;;;;;;5082422;28;20043;-86
2021/12/24 15:30:46;;;;;;;4.90;4.50;;;;;;;;;;5083815;28;20395;-86
2021/12/24 15:33:13;;;;;;;3.85;3.55;;;;;;;;;;5083465;28;20047;-86
2021/12/24 15:35:39;;;;;;;4.47;4.07;;;;;;;;;;5077335;28;20036;-86
2021/12/24 15:38:06;;;;;;;4.40;3.80;;;;;;;;;;5085640;28;20043;-86
2021/12/24 15:40:33;;;;;;;3.85;3.55;;;;;;;;;;5094649;28;20039;-84
2021/12/24 15:43:02;;;;;;;10.35;6.30;;;;;;;;;;5081112;28;20123;-84
2021/12/24 15:45:29;;;;;;;32.72;14.38;;;;;;;;;;5113106;28;20436;-86
2021/12/24 15:47:55;;;;;;;18.27;8.77;;;;;;;;;;5101062;28;20410;-86
2021/12/24 15:50:24;;;;;;;7.63;5.75;;;;;;;;;;5096209;28;20055;-85
2021/12/24 15:52:50;;;;;;;6.65;5.13;;;;;;;;;;5102775;28;20078;-84
2021/12/24 15:55:16;;;;;;;7.80;5.18;;;;;;;;;;5080433;28;20071;-85
2021/12/24 15:57:43;;;;;;;8.73;5.63;;;;;;;;;;5102286;28;20058;-85
2021/12/24 16:00:16;;;;;;;7.55;5.22;;;;;;;;;;5078397;28;20043;-86
2021/12/24 16:02:47;;;;;;;;;;;;;;;;;;5066325;28;20036;-85
2021/12/24 16:05:15;;;;;;;10.07;7.25;;;;;;;;;;5117788;27;20361;-84
2021/12/24 16:07:41;;;;;;;7.40;5.53;;;;;;;;;;5106852;28;20048;-85
2021/12/24 16:10:07;;;;;;;9.98;8.32;;;;;;;;;;5124828;27;20027;-85
2021/12/24 16:12:34;;;;;;;7.72;6.00;;;;;;;;;;5119121;28;20615;-86
2021/12/24 16:15:02;;;;;;;8.65;6.50;;;;;;;;;;5089974;28;20406;-86
2021/12/24 16:17:28;;;;;;;8.60;6.68;;;;;;;;;;5085444;28;20047;-85
2021/12/24 16:19:54;;;;;;;7.80;5.88;;;;;;;;;;5089761;28;20031;-86
2021/12/24 16:22:20;;;;;;;9.68;6.30;;;;;;;;;;5095572;28;20031;-86
2021/12/24 16:24:47;;;;;;;7.20;6.25;;;;;;;;;;5113658;28;20043;-86
2021/12/24 16:27:13;;;;;;;6.68;5.75;;;;;;;;;;5111820;28;20070;-86
2021/12/24 16:29:53;;;;;;;6.82;6.10;;;;;;;;;;5101264;28;20506;-86
2021/12/24 16:32:20;;;;;;;6.80;4.82;;;;;;;;;;5084402;28;20547;-85
2021/12/24 16:34:46;;;;;;;6.03;4.90;;;;;;;;;;5079092;28;20044;-86
2021/12/24 16:37:13;;;;;;;5.78;5.10;;;;;;;;;;5078684;28;20513;-85
2021/12/24 16:39:41;;;;;;;6.10;5.47;;;;;;;;;;5087503;28;20202;-87
2021/12/24 16:42:29;;;;;;;7.70;6.93;;;;;;;;;;5092746;28;20066;-88
2021/12/24 17:02:58;;;;;;;9.00;7.22;;;;;;;;;;5086873;28;20034;-87
2021/12/24 17:20:17;;;;;;;7.57;5.85;;;;;;;;;;5034379;28;20060;-88
2021/12/24 17:29:27;;;;;;;9.75;7.05;;;;;;;;;;5048788;28;20404;-86
2021/12/24 17:32:24;;;;;;;7.13;5.85;;;;;;;;;;5031277;28;20476;-87
2021/12/24 17:35:49;;;;;;;4.88;4.35;;;;;;;;;;4992719;28;20072;-87
2021/12/24 17:38:55;;;;;;;;;;;;;;;;;;4985048;28;20057;-86
2021/12/24 17:41:39;;;;;;;5.15;3.63;;;;;;;;;;5053130;27;20287;-86
2021/12/24 17:45:10;;;;;;;6.80;4.55;;;;;;;;;;5102766;27;20046;-86
2021/12/24 17:51:10;;;;;;;9.65;6.13;;;;;;;;;;5117303;27;20394;-87
2021/12/24 17:53:57;;;;;;;10.32;6.78;;;;;;;;;;5103407;27;20039;-86
2021/12/24 17:56:35;;;;;;;17.50;8.27;;;;;;;;;;5086845;27;20031;-85
2021/12/24 17:59:52;;;;;;;13.27;8.38;;;;;;;;;;5089232;27;20061;-85
2021/12/24 18:02:18;;;;;;;15.05;9.45;;;;;;;;;;5092893;27;20042;-86
2021/12/24 18:04:44;;;;;;;20.98;10.40;;;;;;;;;;5099858;27;20035;-86
2021/12/24 18:07:10;;;;;;;21.83;11.13;;;;;;;;;;5083824;27;20043;-86
2021/12/24 18:09:36;;;;;;;22.85;13.15;;;;;;;;;;5099004;27;20063;-83
2021/12/24 18:12:32;;;;;;;23.98;13.25;;;;;;;;;;5112498;27;20039;-85
2021/12/24 18:15:15;;;;;;;24.67;14.00;;;;;;;;;;5082575;28;20047;-86